createdAt,value
2022-08-19T00:02:00.327Z,76.91
2022-08-19T00:04:33.826Z,76.45
2022-08-19T00:07:04.977Z,76.55
2022-08-19T00:09:33.564Z,77.23
2022-08-19T00:12:02.631Z,77.05
2022-08-19T00:14:32.615Z,76.84
2022-08-19T00:17:03.412Z,76.23
2022-08-19T00:19:33.427Z,76.04
2022-08-19T00:22:03.409Z,77.17
2022-08-19T00:24:31.855Z,77.59
2022-08-19T00:27:25.927Z,77.75
2022-08-19T00:29:52.562Z,77.93
2022-08-19T00:32:21.850Z,78.11
2022-08-19T00:34:54.257Z,77.97
2022-08-19T00:37:24.461Z,77.04
2022-08-19T00:39:53.208Z,76.90
2022-08-19T00:42:23.245Z,76.75
2022-08-19T00:44:54.694Z,76.98
2022-08-19T00:47:23.099Z,77.00
2022-08-19T00:49:56.269Z,77.17
2022-08-19T00:52:30.875Z,77.36
2022-08-19T00:55:02.049Z,77.12
2022-08-19T00:57:36.412Z,76.94
2022-08-19T01:00:12.234Z,76.92
2022-08-19T01:02:43.980Z,76.54
2022-08-19T01:05:21.673Z,75.68
2022-08-19T01:07:51.853Z,76.00
2022-08-19T01:10:27.536Z,76.64
2022-08-19T01:12:58.063Z,78.88
2022-08-19T01:15:32.753Z,80.58
2022-08-19T01:18:07.412Z,81.30
2022-08-19T01:20:37.443Z,81.49
2022-08-19T01:23:07.261Z,81.60
2022-08-19T01:25:48.183Z,81.41
2022-08-19T01:28:33.729Z,81.47
2022-08-19T01:31:08.062Z,81.96
2022-08-19T01:33:36.803Z,81.98
2022-08-19T01:36:12.078Z,82.07
2022-08-19T01:38:47.234Z,82.04
2022-08-19T01:41:15.996Z,81.68
2022-08-19T01:44:13.954Z,81.07
2022-08-19T01:46:33.878Z,80.26
2022-08-19T01:49:04.688Z,80.37
2022-08-19T01:51:39.834Z,81.40
2022-08-19T01:54:14.267Z,82.36
2022-08-19T01:56:52.487Z,82.90
2022-08-19T01:59:24.292Z,83.14
2022-08-19T02:01:54.140Z,83.06
2022-08-19T02:04:24.306Z,83.23
2022-08-19T02:06:52.650Z,82.91
2022-08-19T02:09:22.330Z,82.83
2022-08-19T02:11:50.710Z,82.59
2022-08-19T02:14:19.396Z,82.35
2022-08-19T02:16:47.724Z,81.98
2022-08-19T02:19:16.050Z,81.48
2022-08-19T02:21:44.546Z,81.32
2022-08-19T02:24:13.229Z,81.52
2022-08-19T02:26:42.882Z,80.96
2022-08-19T02:29:11.940Z,80.94
2022-08-19T02:31:40.473Z,80.83
2022-08-19T02:34:08.762Z,80.77
2022-08-19T02:36:37.123Z,80.95
2022-08-19T02:39:11.735Z,81.66
2022-08-19T02:41:40.126Z,82.21
2022-08-19T02:44:30.664Z,82.41
2022-08-19T02:46:58.249Z,82.54
2022-08-19T02:49:26.526Z,82.77
2022-08-19T02:51:56.431Z,82.66
2022-08-19T02:54:26.534Z,82.29
2022-08-19T02:56:57.834Z,82.05
2022-08-19T02:59:27.729Z,81.90
2022-08-19T03:01:56.066Z,81.85
2022-08-19T03:04:25.312Z,81.79
2022-08-19T03:06:59.577Z,81.83
2022-08-19T03:09:31.332Z,81.57
2022-08-19T03:12:01.083Z,81.37
2022-08-19T03:14:32.994Z,81.25
2022-08-19T03:17:01.783Z,81.06
2022-08-19T03:19:30.449Z,80.93
2022-08-19T03:21:58.802Z,81.01
2022-08-19T03:24:27.357Z,81.11
2022-08-19T03:26:58.281Z,81.11
2022-08-19T03:29:30.740Z,81.35
2022-08-19T03:32:04.866Z,81.25
2022-08-19T03:34:36.184Z,81.38
2022-08-19T03:37:08.091Z,81.68
2022-08-19T03:39:39.186Z,81.72
2022-08-19T03:42:32.841Z,82.02
2022-08-19T03:44:56.781Z,82.14
2022-08-19T03:47:26.575Z,82.06
2022-08-19T03:49:54.867Z,81.62
2022-08-19T03:52:23.149Z,81.41
2022-08-19T03:54:51.471Z,80.97
2022-08-19T03:57:19.809Z,80.53
2022-08-19T03:59:48.089Z,80.44
2022-08-19T04:02:16.408Z,80.38
2022-08-19T04:04:46.365Z,80.32
2022-08-19T04:07:17.327Z,80.84
2022-08-19T04:09:46.418Z,81.22
2022-08-19T04:12:15.865Z,81.80
2022-08-19T04:14:44.143Z,81.97
2022-08-19T04:17:14.975Z,82.04
2022-08-19T04:19:45.473Z,82.22
2022-08-19T04:22:13.845Z,82.22
2022-08-19T04:24:42.065Z,82.78
2022-08-19T04:27:10.456Z,82.88
2022-08-19T04:29:40.517Z,82.96
2022-08-19T04:32:10.124Z,83.08
2022-08-19T04:35:01.305Z,83.12
2022-08-19T04:37:34.860Z,83.24
2022-08-19T04:40:25.249Z,83.32
2022-08-19T04:42:54.554Z,83.51
2022-08-19T04:45:23.440Z,83.31
2022-08-19T04:47:58.340Z,83.82
2022-08-19T04:50:29.091Z,83.87
2022-08-19T04:52:58.829Z,83.88
2022-08-19T04:55:27.551Z,83.94
2022-08-19T04:57:56.695Z,83.97
2022-08-19T05:00:25.486Z,84.25
2022-08-19T05:02:54.014Z,84.32
2022-08-19T05:05:22.489Z,84.25
2022-08-19T05:07:50.858Z,84.40
2022-08-19T05:10:21.505Z,84.36
2022-08-19T05:12:49.805Z,84.87
2022-08-19T05:15:20.315Z,84.94
2022-08-19T05:18:02.547Z,85.10
2022-08-19T05:20:48.588Z,84.92
2022-08-19T05:23:22.029Z,85.46
2022-08-19T05:25:53.828Z,85.58
2022-08-19T05:28:22.694Z,85.92
2022-08-19T05:30:51.882Z,86.03
2022-08-19T05:33:20.768Z,85.92
2022-08-19T05:35:50.470Z,85.93
2022-08-19T05:38:20.210Z,86.04
2022-08-19T05:40:50.271Z,86.09
2022-08-19T05:43:19.915Z,86.04
2022-08-19T05:45:48.206Z,86.19
2022-08-19T05:48:18.385Z,86.14
2022-08-19T05:50:47.427Z,86.35
2022-08-19T05:53:17.303Z,86.49
2022-08-19T05:55:45.786Z,86.33
2022-08-19T05:58:14.231Z,86.62
2022-08-19T06:00:46.476Z,86.58
2022-08-19T06:03:14.841Z,86.73
2022-08-19T06:05:51.716Z,86.72
2022-08-19T06:08:34.537Z,86.98
2022-08-19T06:11:21.404Z,87.32
2022-08-19T06:13:59.778Z,87.25
2022-08-19T06:16:32.670Z,87.44
2022-08-19T06:19:03.752Z,87.45
2022-08-19T06:21:33.146Z,88.03
2022-08-19T06:24:02.041Z,88.03
2022-08-19T06:26:30.518Z,87.75
2022-08-19T06:28:59.366Z,87.59
2022-08-19T06:31:32.256Z,87.54
2022-08-19T06:34:00.775Z,87.68
2022-08-19T06:36:40.987Z,87.71
2022-08-19T06:39:14.117Z,87.44
2022-08-19T06:41:51.519Z,87.29
2022-08-19T06:44:22.305Z,87.08
2022-08-19T06:46:55.426Z,86.77
2022-08-19T06:49:26.038Z,86.85
2022-08-19T06:51:54.241Z,86.10
2022-08-19T06:54:30.621Z,86.13
2022-08-19T06:57:03.382Z,85.90
2022-08-19T06:59:34.126Z,85.87
2022-08-19T07:02:08.029Z,85.71
2022-08-19T07:04:39.407Z,85.87
2022-08-19T07:07:19.887Z,85.80
2022-08-19T07:09:58.205Z,85.75
2022-08-19T07:12:30.623Z,85.01
2022-08-19T07:15:00.121Z,84.83
2022-08-19T07:17:31.124Z,84.48
2022-08-19T07:20:06.803Z,84.23
2022-08-19T07:22:35.817Z,84.41
2022-08-19T07:25:06.120Z,84.05
2022-08-19T07:27:34.899Z,84.12
2022-08-19T07:30:04.086Z,84.21
2022-08-19T07:32:33.919Z,83.95
2022-08-19T07:35:04.231Z,83.95
2022-08-19T07:37:33.502Z,83.85
2022-08-19T07:40:02.258Z,83.97
2022-08-19T07:42:31.598Z,83.72
2022-08-19T07:45:00.591Z,83.77
2022-08-19T07:47:48.255Z,83.77
2022-08-19T07:50:21.374Z,83.47
2022-08-19T07:52:51.464Z,83.07
2022-08-19T07:55:41.132Z,82.92
2022-08-19T07:58:12.591Z,82.48
2022-08-19T08:00:40.977Z,82.30
2022-08-19T08:03:09.660Z,82.05
2022-08-19T08:05:56.855Z,81.47
2022-08-19T08:08:44.234Z,81.62
2022-08-19T08:11:20.063Z,81.43
2022-08-19T08:14:01.159Z,81.41
2022-08-19T08:16:39.673Z,80.93
2022-08-19T08:19:20.362Z,80.98
2022-08-19T08:21:56.774Z,79.78
2022-08-19T08:24:28.336Z,78.16
2022-08-19T08:26:58.654Z,77.36
2022-08-19T08:29:34.538Z,75.81
2022-08-19T08:32:13.976Z,75.05
2022-08-19T08:34:43.642Z,74.57
2022-08-19T08:37:13.303Z,74.40
2022-08-19T08:39:44.532Z,73.67
2022-08-19T08:42:19.434Z,72.33
2022-08-19T08:45:00.917Z,72.09
2022-08-19T08:47:42.107Z,70.31
2022-08-19T08:50:16.420Z,68.95
2022-08-19T08:52:50.448Z,68.36
2022-08-19T08:55:23.504Z,68.07
2022-08-19T08:57:59.659Z,67.18
2022-08-19T09:00:32.526Z,67.68
2022-08-19T09:03:02.479Z,67.49
2022-08-19T09:05:48.211Z,66.94
2022-08-19T09:08:29.952Z,66.03
2022-08-19T09:10:59.406Z,66.06
2022-08-19T09:13:37.502Z,66.45
2022-08-19T09:16:12.650Z,66.04
2022-08-19T09:18:44.245Z,66.29
2022-08-19T09:21:13.068Z,66.11
2022-08-19T09:23:44.322Z,66.64
2022-08-19T09:26:16.353Z,66.25
2022-08-19T09:28:48.680Z,66.61
2022-08-19T09:31:20.582Z,67.25
2022-08-19T09:33:50.229Z,68.03
2022-08-19T09:36:34.910Z,68.00
2022-08-19T09:39:16.437Z,68.07
2022-08-19T09:41:47.313Z,68.14
2022-08-19T09:44:15.981Z,68.17
2022-08-19T09:46:44.311Z,67.93
2022-08-19T09:49:12.779Z,67.93
2022-08-19T09:51:41.884Z,68.11
2022-08-19T09:54:11.808Z,67.93
2022-08-19T09:56:40.163Z,64.42
2022-08-19T09:59:11.250Z,63.45
2022-08-19T10:01:40.246Z,64.16
2022-08-19T10:04:19.666Z,64.04
2022-08-19T10:06:53.413Z,63.02
2022-08-19T10:09:26.220Z,63.26
2022-08-19T10:12:03.099Z,62.89
2022-08-19T10:14:31.695Z,63.64
2022-08-19T10:17:01.318Z,64.36
2022-08-19T10:19:41.936Z,63.67
2022-08-19T10:22:25.773Z,63.89
2022-08-19T10:24:56.135Z,63.89
2022-08-19T10:27:26.321Z,64.35
2022-08-19T10:29:55.104Z,64.85
2022-08-19T10:32:33.019Z,64.31
2022-08-19T10:35:03.000Z,64.39
2022-08-19T10:37:34.587Z,65.45
2022-08-19T10:40:07.905Z,66.58
2022-08-19T10:42:37.126Z,67.32
2022-08-19T10:45:07.827Z,67.71
2022-08-19T10:47:36.250Z,68.17
2022-08-19T10:50:28.632Z,68.24
2022-08-19T10:52:57.279Z,68.63
2022-08-19T10:55:44.626Z,68.61
2022-08-19T10:58:14.747Z,68.74
2022-08-19T11:00:44.486Z,68.07
2022-08-19T11:03:12.918Z,67.90
2022-08-19T11:05:41.938Z,67.43
2022-08-19T11:08:23.447Z,67.59
2022-08-19T11:11:01.643Z,67.76
2022-08-19T11:13:30.543Z,68.22
2022-08-19T11:16:06.586Z,67.83
2022-08-19T11:18:38.358Z,67.08
2022-08-19T11:21:19.967Z,66.84
2022-08-19T11:23:50.222Z,67.63
2022-08-19T11:26:21.165Z,67.45
2022-08-19T11:28:52.197Z,67.51
2022-08-19T11:31:24.893Z,68.92
2022-08-19T11:34:00.677Z,70.01
2022-08-19T11:36:29.570Z,70.39
2022-08-19T11:38:57.921Z,71.80
2022-08-19T11:41:28.429Z,72.27
2022-08-19T11:43:56.936Z,71.91
2022-08-19T11:46:30.326Z,71.77
2022-08-19T11:48:59.988Z,71.79
2022-08-19T11:51:29.948Z,72.45
2022-08-19T11:54:00.426Z,72.91
2022-08-19T11:56:30.713Z,72.43
2022-08-19T11:58:59.601Z,72.44
2022-08-19T12:01:29.218Z,72.63
2022-08-19T12:03:59.001Z,72.42
2022-08-19T12:06:33.513Z,72.67
2022-08-19T12:09:06.611Z,72.07
2022-08-19T12:11:37.857Z,70.52
2022-08-19T12:14:06.588Z,70.92
2022-08-19T12:16:37.810Z,71.24
2022-08-19T12:19:09.802Z,71.10
2022-08-19T12:21:39.743Z,69.61
2022-08-19T12:24:09.312Z,69.29
2022-08-19T12:26:53.549Z,68.99
2022-08-19T12:29:23.846Z,68.91
2022-08-19T12:31:52.853Z,69.43
2022-08-19T12:34:21.810Z,68.43
2022-08-19T12:36:50.500Z,67.64
2022-08-19T12:39:19.201Z,67.46
2022-08-19T12:41:54.528Z,66.94
2022-08-19T12:44:29.437Z,66.46
2022-08-19T12:47:01.522Z,66.54
2022-08-19T12:49:54.712Z,64.92
2022-08-19T12:52:23.868Z,64.70
2022-08-19T12:54:54.026Z,66.18
2022-08-19T12:57:32.038Z,65.68
2022-08-19T13:00:07.119Z,63.45
2022-08-19T13:02:38.344Z,63.46
2022-08-19T13:05:11.979Z,63.55
2022-08-19T13:07:42.421Z,62.94
2022-08-19T13:10:12.825Z,62.63
2022-08-19T13:12:43.024Z,63.25
2022-08-19T13:15:12.967Z,62.72
2022-08-19T13:17:44.195Z,62.49
2022-08-19T13:20:13.652Z,62.68
2022-08-19T13:22:41.918Z,62.49
2022-08-19T13:25:11.596Z,62.29
2022-08-19T13:27:42.364Z,62.15
2022-08-19T13:30:31.628Z,61.38
2022-08-19T13:33:16.457Z,61.50
2022-08-19T13:35:49.059Z,61.46
2022-08-19T13:38:21.417Z,60.94
2022-08-19T13:40:52.455Z,61.08
2022-08-19T13:43:24.447Z,61.49
2022-08-19T13:45:57.393Z,61.73
2022-08-19T13:48:28.339Z,62.18
2022-08-19T13:50:56.953Z,61.89
2022-08-19T13:53:25.597Z,61.84
2022-08-19T13:55:54.656Z,62.58
2022-08-19T13:58:24.770Z,62.37
2022-08-19T14:00:53.392Z,61.59
2022-08-19T14:03:21.867Z,61.83
2022-08-19T14:05:50.210Z,61.93
2022-08-19T14:08:19.239Z,62.01
2022-08-19T14:10:49.368Z,62.22
2022-08-19T14:13:20.523Z,62.03
2022-08-19T14:15:50.808Z,61.53
2022-08-19T14:18:20.709Z,62.20
2022-08-19T14:20:49.087Z,62.76
2022-08-19T14:23:17.365Z,62.90
2022-08-19T14:25:47.410Z,62.99
2022-08-19T14:28:15.748Z,63.53
2022-08-19T14:30:45.483Z,63.54
2022-08-19T14:33:15.204Z,63.65
2022-08-19T14:35:45.950Z,65.16
2022-08-19T14:38:22.054Z,67.56
2022-08-19T14:41:14.857Z,69.30
2022-08-19T14:43:43.355Z,70.50
2022-08-19T14:46:13.562Z,72.06
2022-08-19T14:48:43.371Z,72.54
2022-08-19T14:51:12.100Z,73.08
2022-08-19T14:53:40.645Z,73.25
2022-08-19T14:56:15.483Z,74.43
2022-08-19T14:58:45.617Z,76.63
2022-08-19T15:01:15.187Z,77.99
2022-08-19T15:03:44.912Z,79.21
2022-08-19T15:06:13.442Z,80.69
2022-08-19T15:08:45.879Z,83.10
2022-08-19T15:11:22.116Z,84.84
2022-08-19T15:13:58.736Z,85.51
2022-08-19T15:16:29.226Z,85.85
2022-08-19T15:19:01.731Z,86.04
2022-08-19T15:21:31.792Z,86.33
2022-08-19T15:24:01.821Z,87.18
2022-08-19T15:26:33.179Z,86.67
2022-08-19T15:29:02.781Z,85.71
2022-08-19T15:31:38.764Z,85.59
2022-08-19T15:34:08.949Z,85.90
2022-08-19T15:36:38.061Z,85.08
2022-08-19T15:39:07.397Z,85.04
2022-08-19T15:41:37.135Z,85.27
2022-08-19T15:44:10.092Z,84.70
2022-08-19T15:46:40.780Z,84.90
2022-08-19T15:49:10.919Z,85.80
2022-08-19T15:51:41.870Z,85.79
2022-08-19T15:54:13.912Z,85.93
2022-08-19T15:57:02.105Z,84.62
2022-08-19T15:59:48.321Z,83.24
2022-08-19T16:02:38.936Z,82.90
2022-08-19T16:05:37.576Z,82.62
2022-08-19T16:08:06.714Z,83.17
2022-08-19T16:10:35.030Z,81.47
2022-08-19T16:13:03.637Z,80.26
2022-08-19T16:15:33.730Z,80.34
2022-08-19T16:18:04.346Z,79.41
2022-08-19T16:20:35.895Z,77.60
2022-08-19T16:23:05.647Z,78.38
2022-08-19T16:25:33.925Z,78.18
2022-08-19T16:28:06.329Z,78.03
2022-08-19T16:30:38.582Z,77.35
2022-08-19T16:33:07.620Z,75.89
2022-08-19T16:35:37.871Z,75.66
2022-08-19T16:38:07.029Z,75.59
2022-08-19T16:40:36.406Z,76.17
2022-08-19T16:43:05.032Z,76.04
2022-08-19T16:45:34.062Z,75.12
2022-08-19T16:48:03.868Z,75.05
2022-08-19T16:50:48.847Z,74.34
2022-08-19T16:53:22.906Z,73.94
2022-08-19T16:55:53.248Z,74.46
2022-08-19T16:58:28.537Z,73.72
2022-08-19T17:01:03.225Z,73.23
2022-08-19T17:03:36.315Z,72.67
2022-08-19T17:06:19.012Z,72.19
2022-08-19T17:08:52.545Z,72.23
2022-08-19T17:11:21.650Z,72.01
2022-08-19T17:13:50.833Z,72.25
2022-08-19T17:16:22.020Z,72.98
2022-08-19T17:18:52.694Z,73.09
2022-08-19T17:21:21.517Z,73.06
2022-08-19T17:23:51.280Z,73.95
2022-08-19T17:26:20.123Z,73.57
2022-08-19T17:28:51.046Z,74.18
2022-08-19T17:31:23.129Z,73.79
2022-08-19T17:33:53.236Z,73.85
2022-08-19T17:36:26.211Z,73.79
2022-08-19T17:38:57.357Z,73.77
2022-08-19T17:41:27.203Z,73.82
2022-08-19T17:43:56.272Z,73.79
2022-08-19T17:46:24.723Z,73.81
2022-08-19T17:48:57.618Z,73.82
2022-08-19T17:51:42.135Z,73.54
2022-08-19T17:54:15.319Z,73.47
2022-08-19T17:56:45.253Z,73.35
2022-08-19T17:59:14.499Z,73.16
2022-08-19T18:01:53.681Z,72.69
2022-08-19T18:04:24.811Z,72.47
2022-08-19T18:06:55.003Z,72.33
2022-08-19T18:09:41.787Z,72.13
2022-08-19T18:12:13.363Z,71.60
2022-08-19T18:14:42.890Z,71.35
2022-08-19T18:17:17.202Z,70.89
2022-08-19T18:19:47.248Z,70.83
2022-08-19T18:22:26.710Z,70.69
2022-08-19T18:24:59.184Z,70.51
2022-08-19T18:27:28.724Z,70.58
2022-08-19T18:29:59.464Z,70.54
2022-08-19T18:32:31.468Z,70.29
2022-08-19T18:35:02.024Z,71.04
2022-08-19T18:37:30.136Z,71.28
2022-08-19T18:40:17.578Z,71.54
2022-08-19T18:43:05.023Z,71.56
2022-08-19T18:45:50.770Z,72.05
2022-08-19T18:48:36.742Z,72.79
2022-08-19T18:51:05.767Z,72.88
2022-08-19T18:53:37.813Z,72.67
2022-08-19T18:56:10.051Z,73.08
2022-08-19T18:58:39.991Z,73.22
2022-08-19T19:01:13.797Z,74.12
2022-08-19T19:03:45.686Z,74.30
2022-08-19T19:06:18.838Z,75.14
2022-08-19T19:08:48.282Z,75.22
2022-08-19T19:11:24.009Z,75.50
2022-08-19T19:13:52.992Z,75.80
2022-08-19T19:16:24.469Z,76.21
2022-08-19T19:18:53.511Z,75.83
2022-08-19T19:21:23.212Z,75.71
2022-08-19T19:23:52.522Z,75.15
2022-08-19T19:26:22.729Z,75.27
2022-08-19T19:28:51.907Z,75.30
2022-08-19T19:31:23.875Z,75.51
2022-08-19T19:33:52.178Z,75.34
2022-08-19T19:36:21.188Z,75.31
2022-08-19T19:38:49.835Z,75.12
2022-08-19T19:41:24.090Z,75.43
2022-08-19T19:44:09.842Z,75.18
2022-08-19T19:46:43.473Z,74.88
2022-08-19T19:49:12.998Z,74.55
2022-08-19T19:51:41.964Z,74.18
2022-08-19T19:54:14.613Z,74.14
2022-08-19T19:56:45.530Z,74.26
2022-08-19T19:59:14.252Z,74.13
2022-08-19T20:01:46.909Z,74.00
2022-08-19T20:04:16.165Z,74.43
2022-08-19T20:06:46.312Z,74.06
2022-08-19T20:09:19.652Z,74.10
2022-08-19T20:11:53.726Z,74.57
2022-08-19T20:14:27.016Z,75.28
2022-08-19T20:16:57.501Z,75.53
2022-08-19T20:19:27.827Z,75.51
2022-08-19T20:21:57.469Z,75.44
2022-08-19T20:24:28.500Z,75.58
2022-08-19T20:26:58.379Z,75.92
2022-08-19T20:29:38.323Z,76.29
2022-08-19T20:32:08.766Z,75.93
2022-08-19T20:34:37.184Z,76.21
2022-08-19T20:37:05.887Z,74.51
2022-08-19T20:39:34.374Z,73.96
2022-08-19T20:42:05.352Z,72.84
2022-08-19T20:44:35.611Z,72.42
2022-08-19T20:47:04.337Z,72.44
2022-08-19T20:49:33.544Z,72.51
2022-08-19T20:52:03.718Z,72.53
2022-08-19T20:54:32.267Z,72.75
2022-08-19T20:57:03.598Z,73.73
2022-08-19T20:59:33.518Z,74.26
2022-08-19T21:02:02.056Z,75.18
2022-08-19T21:04:31.064Z,75.33
2022-08-19T21:06:59.443Z,75.77
2022-08-19T21:09:27.792Z,74.46
2022-08-19T21:11:56.190Z,73.13
2022-08-19T21:14:24.420Z,73.18
2022-08-19T21:16:54.491Z,73.32
2022-08-19T21:19:24.107Z,73.35
2022-08-19T21:21:53.295Z,74.26
2022-08-19T21:24:21.749Z,74.42
2022-08-19T21:26:55.769Z,74.72
2022-08-19T21:29:24.035Z,75.15
2022-08-19T21:31:53.935Z,75.37
2022-08-19T21:34:22.305Z,75.34
2022-08-19T21:36:50.690Z,74.88
2022-08-19T21:39:19.023Z,75.13
2022-08-19T21:41:47.288Z,75.48
2022-08-19T21:44:15.621Z,76.25
2022-08-19T21:46:43.981Z,76.14
2022-08-19T21:49:14.100Z,76.00
2022-08-19T21:51:43.212Z,76.10
2022-08-19T21:54:14.137Z,75.81
2022-08-19T21:56:43.081Z,76.88
2022-08-19T21:59:11.461Z,77.67
2022-08-19T22:01:39.886Z,78.87
2022-08-19T22:04:08.204Z,76.63
2022-08-19T22:06:37.939Z,75.60
2022-08-19T22:09:06.438Z,74.88
2022-08-19T22:11:34.887Z,74.62
2022-08-19T22:14:04.323Z,71.98
2022-08-19T22:16:33.694Z,71.00
2022-08-19T22:19:02.127Z,70.86
2022-08-19T22:21:40.792Z,71.94
2022-08-19T22:24:11.515Z,72.61
2022-08-19T22:26:39.884Z,73.37
2022-08-19T22:29:08.703Z,73.73
2022-08-19T22:31:37.612Z,73.42
2022-08-19T22:34:07.602Z,74.08
2022-08-19T22:36:35.984Z,73.93
2022-08-19T22:39:05.403Z,74.63
2022-08-19T22:41:35.110Z,74.23
2022-08-19T22:44:03.903Z,74.40
2022-08-19T22:46:33.646Z,74.41
2022-08-19T22:49:02.011Z,75.02
2022-08-19T22:51:48.444Z,74.84
2022-08-19T22:54:17.156Z,75.35
2022-08-19T22:56:46.833Z,75.53
2022-08-19T22:59:15.210Z,76.08
2022-08-19T23:01:43.545Z,76.42
2022-08-19T23:04:12.223Z,76.52
2022-08-19T23:06:42.192Z,76.86
2022-08-19T23:09:11.408Z,77.13
2022-08-19T23:11:47.611Z,77.39
2022-08-19T23:14:17.585Z,77.99
2022-08-19T23:16:51.030Z,79.00
2022-08-19T23:19:20.882Z,79.11
2022-08-19T23:21:50.166Z,79.38
2022-08-19T23:24:18.479Z,79.23
2022-08-19T23:27:05.516Z,79.61
2022-08-19T23:29:51.646Z,79.15
2022-08-19T23:32:21.418Z,78.31
2022-08-19T23:34:50.086Z,78.50
2022-08-19T23:37:18.672Z,79.18
2022-08-19T23:39:46.960Z,79.44
2022-08-19T23:42:16.736Z,80.56
2022-08-19T23:44:52.301Z,80.71
2022-08-19T23:47:22.199Z,80.91
2022-08-19T23:49:50.676Z,80.50
2022-08-19T23:52:19.424Z,80.70
2022-08-19T23:54:47.743Z,80.11
2022-08-19T23:57:17.411Z,80.54
2022-08-19T23:59:46.239Z,80.49
